createdAt,value
2019-02-14T00:02:19.214Z,102819.42
2019-02-14T00:04:54.127Z,102822.83
2019-02-14T00:07:27.427Z,102822.45
2019-02-14T00:10:01.303Z,102825.70
2019-02-14T00:12:34.621Z,102817.64
2019-02-14T00:15:13.053Z,102820.21
2019-02-14T00:17:46.375Z,102819.09
2019-02-14T00:20:19.668Z,102823.14
2019-02-14T00:22:52.967Z,102818.77
2019-02-14T00:25:26.998Z,102818.05
2019-02-14T00:28:00.293Z,102828.55
2019-02-14T00:30:33.665Z,102825.77
2019-02-14T00:33:06.965Z,102829.98
2019-02-14T00:35:40.258Z,102826.65
2019-02-14T00:38:14.433Z,102832.54
2019-02-14T00:40:49.209Z,102824.64
2019-02-14T00:43:22.538Z,102823.35
2019-02-14T00:45:56.162Z,102820.48
2019-02-14T00:48:29.462Z,102820.78
2019-02-14T00:51:02.814Z,102817.92
2019-02-14T00:53:36.126Z,102818.20
2019-02-14T00:56:09.413Z,102817.38
2019-02-14T00:58:43.436Z,102816.61
2019-02-14T01:01:16.709Z,102817.73
2019-02-14T01:03:51.667Z,102823.95
2019-02-14T01:06:24.974Z,102821.25
2019-02-14T01:08:58.305Z,102815.74
2019-02-14T01:11:31.664Z,102814.06
2019-02-14T01:14:05.038Z,102812.39
2019-02-14T01:16:38.892Z,102806.16
2019-02-14T01:19:12.524Z,102803.45
2019-02-14T01:21:45.791Z,102800.30
2019-02-14T01:24:19.126Z,102797.98
2019-02-14T01:26:52.435Z,102804.42
2019-02-14T01:29:25.746Z,102801.84
2019-02-14T01:31:59.027Z,102799.82
2019-02-14T01:34:32.343Z,102805.31
2019-02-14T01:37:05.643Z,102806.37
2019-02-14T01:39:38.948Z,102809.77
2019-02-14T01:42:12.250Z,102809.53
2019-02-14T01:44:45.563Z,102815.75
2019-02-14T01:47:18.847Z,102812.27
2019-02-14T01:49:52.143Z,102815.09
2019-02-14T01:52:25.439Z,102817.53
2019-02-14T01:54:58.734Z,102812.30
2019-02-14T01:57:32.035Z,102808.96
2019-02-14T02:00:10.243Z,102806.80
2019-02-14T02:02:43.640Z,102806.09
2019-02-14T02:05:16.931Z,102803.94
2019-02-14T02:07:50.227Z,102802.39
2019-02-14T02:10:24.364Z,102801.66
2019-02-14T02:12:58.431Z,102808.20
2019-02-14T02:15:31.713Z,102813.67
2019-02-14T02:18:05.010Z,102815.49
2019-02-14T02:20:38.310Z,102812.42
2019-02-14T02:23:11.612Z,102818.81
2019-02-14T02:25:45.477Z,102819.05
2019-02-14T02:28:18.882Z,102818.16
2019-02-14T02:30:52.176Z,102813.06
2019-02-14T02:33:25.535Z,102812.77
2019-02-14T02:36:00.712Z,102810.73
2019-02-14T02:38:33.826Z,102812.52
2019-02-14T02:41:07.100Z,102815.36
2019-02-14T02:43:40.412Z,102818.10
2019-02-14T02:46:13.686Z,102819.91
2019-02-14T02:48:46.977Z,102820.14
2019-02-14T02:51:20.278Z,102820.05
2019-02-14T02:53:54.129Z,102816.25
2019-02-14T02:56:27.431Z,102811.09
2019-02-14T02:59:01.388Z,102807.52
2019-02-14T03:01:34.671Z,102812.48
2019-02-14T03:04:08.533Z,102823.06
2019-02-14T03:06:41.818Z,102814.48
2019-02-14T03:09:15.106Z,102812.91
2019-02-14T03:11:48.396Z,102802.38
2019-02-14T03:14:21.689Z,102808.33
2019-02-14T03:16:56.603Z,102814.34
2019-02-14T03:19:29.886Z,102812.19
2019-02-14T03:22:03.182Z,102809.16
2019-02-14T03:24:36.706Z,102806.58
2019-02-14T03:27:10.004Z,102807.39
2019-02-14T03:29:43.298Z,102807.72
2019-02-14T03:32:16.570Z,102807.14
2019-02-14T03:34:49.863Z,102815.05
2019-02-14T03:37:23.762Z,102811.58
2019-02-14T03:39:57.068Z,102813.30
2019-02-14T03:42:30.356Z,102814.05
2019-02-14T03:45:05.128Z,102808.92
2019-02-14T03:47:39.657Z,102815.11
2019-02-14T03:50:14.961Z,102817.39
2019-02-14T03:52:48.244Z,102818.02
2019-02-14T03:55:21.539Z,102824.44
2019-02-14T03:57:54.823Z,102827.83
2019-02-14T04:00:28.125Z,102834.13
2019-02-14T04:03:01.413Z,102831.38
2019-02-14T04:05:34.713Z,102826.01
2019-02-14T04:08:07.997Z,102828.73
2019-02-14T04:10:41.291Z,102824.83
2019-02-14T04:13:14.574Z,102828.11
2019-02-14T04:15:47.867Z,102828.26
2019-02-14T04:18:21.159Z,102827.21
2019-02-14T04:20:55.021Z,102835.49
2019-02-14T04:23:28.297Z,102829.58
2019-02-14T04:26:03.239Z,102837.06
2019-02-14T04:28:36.532Z,102841.25
2019-02-14T04:31:09.870Z,102842.20
2019-02-14T04:33:43.155Z,102838.30
2019-02-14T04:36:16.461Z,102838.20
2019-02-14T04:38:49.763Z,102843.48
2019-02-14T04:41:23.066Z,102835.86
2019-02-14T04:43:56.370Z,102842.33
2019-02-14T04:46:29.674Z,102837.98
2019-02-14T04:49:02.977Z,102836.25
2019-02-14T04:51:36.270Z,102839.30
2019-02-14T04:54:10.120Z,102836.29
2019-02-14T04:56:43.403Z,102838.94
2019-02-14T04:59:16.681Z,102843.48
2019-02-14T05:01:49.985Z,102847.14
2019-02-14T05:04:23.280Z,102848.91
2019-02-14T05:06:56.580Z,102850.81
2019-02-14T05:09:29.879Z,102847.24
2019-02-14T05:12:03.157Z,102845.23
2019-02-14T05:14:36.437Z,102850.02
2019-02-14T05:17:09.747Z,102855.05
2019-02-14T05:19:43.037Z,102852.94
2019-02-14T05:22:16.324Z,102862.13
2019-02-14T05:24:51.341Z,102864.11
2019-02-14T05:27:24.625Z,102861.72
2019-02-14T05:29:57.934Z,102861.61
2019-02-14T05:32:31.214Z,102868.66
2019-02-14T05:35:05.441Z,102862.65
2019-02-14T05:37:38.721Z,102859.84
2019-02-14T05:40:12.184Z,102865.80
2019-02-14T05:42:45.464Z,102869.44
2019-02-14T05:45:18.781Z,102857.31
2019-02-14T05:47:52.054Z,102853.44
2019-02-14T05:50:25.365Z,102865.22
2019-02-14T05:52:58.662Z,102860.60
2019-02-14T05:55:32.033Z,102872.12
2019-02-14T05:58:05.332Z,102868.41
2019-02-14T06:00:38.610Z,102871.55
2019-02-14T06:03:11.912Z,102869.29
2019-02-14T06:05:45.212Z,102881.55
2019-02-14T06:08:18.499Z,102872.55
2019-02-14T06:10:51.825Z,102869.77
2019-02-14T06:13:25.100Z,102878.42
2019-02-14T06:15:58.421Z,102879.28
2019-02-14T06:18:31.690Z,102884.98
2019-02-14T06:21:04.983Z,102886.37
2019-02-14T06:23:38.262Z,102886.81
2019-02-14T06:26:11.581Z,102889.20
2019-02-14T06:28:44.862Z,102894.14
2019-02-14T06:31:18.167Z,102891.61
2019-02-14T06:33:51.459Z,102902.48
2019-02-14T06:36:25.853Z,102908.08
2019-02-14T06:38:59.170Z,102902.10
2019-02-14T06:41:33.562Z,102899.91
2019-02-14T06:44:06.835Z,102905.53
2019-02-14T06:46:40.147Z,102905.34
2019-02-14T06:49:13.428Z,102910.84
2019-02-14T06:51:46.743Z,102916.44
2019-02-14T06:54:20.025Z,102914.43
2019-02-14T06:56:55.641Z,102923.72
2019-02-14T06:59:28.935Z,102923.23
2019-02-14T07:02:02.251Z,102930.64
2019-02-14T07:04:35.539Z,102936.91
2019-02-14T07:07:08.837Z,102946.05
2019-02-14T07:09:42.125Z,102950.55
2019-02-14T07:12:15.439Z,102957.98
2019-02-14T07:14:49.732Z,102951.70
2019-02-14T07:17:23.030Z,102948.27
2019-02-14T07:19:56.314Z,102950.17
2019-02-14T07:22:31.151Z,102949.61
2019-02-14T07:25:06.458Z,102954.00
2019-02-14T07:27:39.761Z,102957.64
2019-02-14T07:30:19.489Z,102958.72
2019-02-14T07:32:52.780Z,102956.63
2019-02-14T07:35:26.093Z,102963.13
2019-02-14T07:37:59.498Z,102966.14
2019-02-14T07:40:32.740Z,102973.88
2019-02-14T07:43:06.036Z,102968.80
2019-02-14T07:45:39.327Z,102968.27
2019-02-14T07:48:12.619Z,102970.85
2019-02-14T07:50:45.890Z,102973.48
2019-02-14T07:53:19.195Z,102973.16
2019-02-14T07:55:52.481Z,102983.06
2019-02-14T07:58:25.798Z,102985.36
2019-02-14T08:00:59.073Z,102986.46
2019-02-14T08:03:32.399Z,102978.56
2019-02-14T08:06:05.697Z,102977.61
2019-02-14T08:08:39.007Z,102981.52
2019-02-14T08:11:12.293Z,102981.23
2019-02-14T08:13:45.587Z,102981.52
2019-02-14T08:16:18.880Z,102978.38
2019-02-14T08:18:53.153Z,102981.39
2019-02-14T08:21:26.426Z,102985.25
2019-02-14T08:23:59.718Z,102987.06
2019-02-14T08:26:33.011Z,102988.51
2019-02-14T08:29:06.357Z,102992.14
2019-02-14T08:31:39.646Z,102991.38
2019-02-14T08:34:13.029Z,102986.28
2019-02-14T08:36:46.296Z,102992.83
2019-02-14T08:39:20.635Z,102994.84
2019-02-14T08:41:53.929Z,102996.55
2019-02-14T08:44:27.228Z,102997.86
2019-02-14T08:47:00.519Z,102994.17
2019-02-14T08:49:35.212Z,102992.17
2019-02-14T08:52:08.596Z,102992.46
2019-02-14T08:54:41.877Z,102998.91
2019-02-14T08:57:16.787Z,102997.38
2019-02-14T08:59:50.083Z,102994.02
2019-02-14T09:02:23.386Z,102985.75
2019-02-14T09:04:56.668Z,102984.17
2019-02-14T09:07:30.058Z,102977.11
2019-02-14T09:10:03.616Z,102989.20
2019-02-14T09:12:36.918Z,102986.91
2019-02-14T09:15:12.375Z,102992.20
2019-02-14T09:17:45.694Z,102982.95
2019-02-14T09:20:20.424Z,102984.96
2019-02-14T09:22:53.718Z,102986.21
2019-02-14T09:25:27.000Z,102983.11
2019-02-14T09:28:03.291Z,102976.13
2019-02-14T09:30:36.593Z,102973.31
2019-02-14T09:33:09.854Z,102974.61
2019-02-14T09:35:43.157Z,102977.11
2019-02-14T09:38:16.242Z,102982.48
2019-02-14T09:40:49.541Z,102979.68
2019-02-14T09:43:29.564Z,102979.26
2019-02-14T09:45:58.795Z,102978.70
2019-02-14T09:48:32.140Z,102979.18
2019-02-14T09:51:05.411Z,102974.95
2019-02-14T09:53:38.700Z,102976.59
2019-02-14T09:56:12.023Z,102974.70
2019-02-14T09:58:45.333Z,102969.25
2019-02-14T10:01:18.640Z,102970.38
2019-02-14T10:03:53.195Z,102970.02
2019-02-14T10:06:26.484Z,102960.55
2019-02-14T10:09:00.803Z,102963.47
2019-02-14T10:11:34.342Z,102956.39
2019-02-14T10:14:07.616Z,102966.19
2019-02-14T10:16:40.918Z,102950.48
2019-02-14T10:19:14.353Z,102955.03
2019-02-14T10:21:47.652Z,102955.34
2019-02-14T10:24:20.936Z,102952.19
2019-02-14T10:26:54.623Z,102958.80
2019-02-14T10:29:27.897Z,102955.50
2019-02-14T10:32:01.207Z,102957.56
2019-02-14T10:34:34.477Z,102952.73
2019-02-14T10:37:07.805Z,102951.98
2019-02-14T10:39:41.095Z,102946.57
2019-02-14T10:42:14.441Z,102949.73
2019-02-14T10:44:47.713Z,102941.03
2019-02-14T10:47:21.008Z,102946.02
2019-02-14T10:49:55.341Z,102947.12
2019-02-14T10:52:28.614Z,102945.16
2019-02-14T10:55:01.939Z,102940.16
2019-02-14T10:57:35.228Z,102940.56
2019-02-14T11:00:20.537Z,102941.97
2019-02-14T11:02:53.893Z,102936.16
2019-02-14T11:05:27.737Z,102926.08
2019-02-14T11:08:01.031Z,102920.08
2019-02-14T11:10:34.322Z,102922.81
2019-02-14T11:13:07.615Z,102911.78
2019-02-14T11:15:40.918Z,102908.58
2019-02-14T11:18:14.200Z,102904.20
2019-02-14T11:20:47.501Z,102903.97
2019-02-14T11:23:21.790Z,102900.95
2019-02-14T11:25:55.082Z,102901.90
2019-02-14T11:28:28.362Z,102904.33
2019-02-14T11:31:01.649Z,102897.92
2019-02-14T11:33:34.917Z,102889.08
2019-02-14T11:36:08.212Z,102889.08
2019-02-14T11:38:42.530Z,102877.27
2019-02-14T11:41:15.820Z,102871.91
2019-02-14T11:43:49.135Z,102880.32
2019-02-14T11:46:22.406Z,102885.52
2019-02-14T11:48:55.689Z,102866.86
2019-02-14T11:51:28.971Z,102860.30
2019-02-14T11:54:02.262Z,102852.67
2019-02-14T11:56:35.567Z,102848.22
2019-02-14T11:59:08.843Z,102838.91
2019-02-14T12:01:42.146Z,102828.75
2019-02-14T12:04:15.429Z,102831.43
2019-02-14T12:06:48.822Z,102836.67
2019-02-14T12:09:22.191Z,102822.58
2019-02-14T12:11:55.498Z,102828.28
2019-02-14T12:14:28.790Z,102821.20
2019-02-14T12:17:02.095Z,102835.28
2019-02-14T12:19:35.367Z,102825.79
2019-02-14T12:22:08.678Z,102822.83
2019-02-14T12:24:41.958Z,102815.54
2019-02-14T12:27:15.262Z,102813.55
2019-02-14T12:29:48.548Z,102815.41
2019-02-14T12:32:21.946Z,102806.27
2019-02-14T12:34:55.225Z,102787.50
2019-02-14T12:37:28.519Z,102782.31
2019-02-14T12:40:01.822Z,102770.83
2019-02-14T12:42:35.112Z,102780.88
2019-02-14T12:45:25.752Z,102782.16
2019-02-14T12:47:58.280Z,102782.20
2019-02-14T12:50:31.564Z,102781.54
2019-02-14T12:53:04.876Z,102769.34
2019-02-14T12:55:38.215Z,102763.08
2019-02-14T12:58:11.521Z,102761.10
2019-02-14T13:00:44.814Z,102762.73
2019-02-14T13:03:18.130Z,102746.75
2019-02-14T13:05:51.473Z,102739.46
2019-02-14T13:08:26.026Z,102742.39
2019-02-14T13:10:59.296Z,102744.92
2019-02-14T13:13:32.604Z,102738.78
2019-02-14T13:16:05.930Z,102743.98
2019-02-14T13:18:39.238Z,102743.28
2019-02-14T13:21:12.527Z,102732.17
2019-02-14T13:23:46.411Z,102733.54
2019-02-14T13:26:19.714Z,102723.89
2019-02-14T13:28:53.025Z,102723.89
2019-02-14T13:31:32.078Z,102719.98
2019-02-14T13:34:01.385Z,102714.76
2019-02-14T13:36:34.634Z,102716.27
2019-02-14T13:39:08.019Z,102706.56
2019-02-14T13:41:41.276Z,102707.75
2019-02-14T13:44:14.779Z,102703.44
2019-02-14T13:46:48.521Z,102711.53
2019-02-14T13:49:21.836Z,102715.14
2019-02-14T13:51:55.091Z,102705.85
2019-02-14T13:54:28.973Z,102697.03
2019-02-14T13:57:02.334Z,102695.53
2019-02-14T13:59:35.649Z,102703.22
2019-02-14T14:02:10.574Z,102702.11
2019-02-14T14:04:44.875Z,102686.06
2019-02-14T14:07:18.426Z,102675.92
2019-02-14T14:09:51.685Z,102687.95
2019-02-14T14:12:24.826Z,102683.08
2019-02-14T14:14:58.242Z,102681.53
2019-02-14T14:17:31.530Z,102686.38
2019-02-14T14:20:06.477Z,102679.07
2019-02-14T14:22:40.946Z,102680.44
2019-02-14T14:25:14.274Z,102677.77
2019-02-14T14:27:47.566Z,102669.77
2019-02-14T14:30:20.864Z,102672.66
2019-02-14T14:32:54.141Z,102673.02
2019-02-14T14:35:27.442Z,102670.78
2019-02-14T14:38:00.729Z,102664.41
2019-02-14T14:40:34.045Z,102671.92
2019-02-14T14:43:18.020Z,102660.86
2019-02-14T14:46:01.816Z,102646.58
2019-02-14T14:48:36.745Z,102638.98
2019-02-14T14:51:10.132Z,102640.38
2019-02-14T14:53:43.420Z,102641.48
2019-02-14T14:56:16.721Z,102641.70
2019-02-14T14:58:50.176Z,102640.42
2019-02-14T15:01:23.471Z,102655.70
2019-02-14T15:03:56.766Z,102661.82
2019-02-14T15:06:30.111Z,102650.33
2019-02-14T15:09:03.772Z,102647.19
2019-02-14T15:11:37.090Z,102653.28
2019-02-14T15:14:11.711Z,102655.25
2019-02-14T15:16:45.109Z,102646.97
2019-02-14T15:19:18.399Z,102649.49
2019-02-14T15:21:51.734Z,102647.94
2019-02-14T15:24:25.017Z,102644.13
2019-02-14T15:26:58.346Z,102645.19
2019-02-14T15:29:31.654Z,102647.30
2019-02-14T15:32:04.988Z,102645.72
2019-02-14T15:34:38.271Z,102650.84
2019-02-14T15:37:12.714Z,102654.36
2019-02-14T15:39:46.589Z,102663.51
2019-02-14T15:42:19.916Z,102660.86
2019-02-14T15:44:53.204Z,102670.26
2019-02-14T15:47:26.500Z,102662.62
2019-02-14T15:49:59.774Z,102654.63
2019-02-14T15:52:33.168Z,102660.12
2019-02-14T15:55:07.678Z,102654.03
2019-02-14T15:57:42.911Z,102657.67
2019-02-14T16:00:16.051Z,102648.80
2019-02-14T16:02:50.442Z,102646.28
2019-02-14T16:05:24.423Z,102638.59
2019-02-14T16:08:00.307Z,102641.80
2019-02-14T16:10:33.602Z,102640.59
2019-02-14T16:13:08.083Z,102647.27
2019-02-14T16:15:42.024Z,102654.92
2019-02-14T16:18:15.340Z,102657.77
2019-02-14T16:20:48.612Z,102657.17
2019-02-14T16:23:21.943Z,102658.94
2019-02-14T16:25:55.238Z,102654.42
2019-02-14T16:28:28.553Z,102654.94
2019-02-14T16:31:01.863Z,102655.54
2019-02-14T16:33:35.212Z,102655.20
2019-02-14T16:36:08.483Z,102654.91
2019-02-14T16:38:41.789Z,102660.89
2019-02-14T16:41:15.101Z,102663.30
2019-02-14T16:43:48.375Z,102662.56
2019-02-14T16:46:21.696Z,102655.83
2019-02-14T16:48:54.984Z,102653.63
2019-02-14T16:51:28.316Z,102655.12
2019-02-14T16:54:01.610Z,102663.34
2019-02-14T16:56:34.961Z,102671.31
2019-02-14T16:59:08.249Z,102667.77
2019-02-14T17:01:41.556Z,102667.73
2019-02-14T17:04:15.687Z,102670.95
2019-02-14T17:06:48.994Z,102676.20
2019-02-14T17:09:22.294Z,102672.30
2019-02-14T17:11:55.585Z,102684.36
2019-02-14T17:14:28.870Z,102685.42
2019-02-14T17:17:02.172Z,102682.36
2019-02-14T17:19:35.998Z,102675.25
2019-02-14T17:22:10.105Z,102671.56
2019-02-14T17:24:43.396Z,102683.53
2019-02-14T17:27:16.721Z,102680.62
2019-02-14T17:29:51.648Z,102687.41
2019-02-14T17:32:24.953Z,102685.55
2019-02-14T17:34:58.238Z,102684.51
2019-02-14T17:37:31.591Z,102683.14
2019-02-14T17:40:07.918Z,102685.20
2019-02-14T17:42:41.225Z,102691.17
2019-02-14T17:45:14.515Z,102696.91
2019-02-14T17:47:47.833Z,102702.33
2019-02-14T17:50:21.128Z,102700.75
2019-02-14T17:52:54.445Z,102701.05
2019-02-14T17:55:27.794Z,102700.83
2019-02-14T17:58:01.090Z,102709.03
2019-02-14T18:00:34.398Z,102707.58
2019-02-14T18:03:07.716Z,102707.87
2019-02-14T18:05:40.998Z,102707.44
2019-02-14T18:08:14.367Z,102708.30
2019-02-14T18:10:54.768Z,102707.80
2019-02-14T18:13:22.680Z,102709.27
2019-02-14T18:15:55.985Z,102705.42
2019-02-14T18:18:29.309Z,102703.05
2019-02-14T18:21:02.618Z,102699.05
2019-02-14T18:23:35.951Z,102708.03
2019-02-14T18:26:09.347Z,102698.19
2019-02-14T18:28:42.661Z,102695.83
2019-02-14T18:31:15.935Z,102694.53
2019-02-14T18:33:49.272Z,102691.41
2019-02-14T18:36:22.599Z,102692.34
2019-02-14T18:38:55.922Z,102699.38
2019-02-14T18:41:29.251Z,102697.09
2019-02-14T18:44:02.587Z,102692.53
2019-02-14T18:46:35.892Z,102696.39
2019-02-14T18:49:09.232Z,102690.64
2019-02-14T18:51:42.563Z,102687.73
2019-02-14T18:54:15.884Z,102689.55
2019-02-14T18:56:49.232Z,102688.58
2019-02-14T18:59:22.547Z,102689.08
2019-02-14T19:01:56.587Z,102695.70
2019-02-14T19:04:30.008Z,102703.63
2019-02-14T19:07:03.480Z,102702.44
2019-02-14T19:09:36.824Z,102706.87
2019-02-14T19:12:11.041Z,102701.95
2019-02-14T19:14:44.388Z,102707.78
2019-02-14T19:17:17.691Z,102705.91
2019-02-14T19:19:51.023Z,102698.75
2019-02-14T19:22:24.331Z,102700.20
2019-02-14T19:24:57.673Z,102701.17
2019-02-14T19:27:31.075Z,102698.00
2019-02-14T19:30:06.774Z,102698.59
2019-02-14T19:32:40.136Z,102691.20
2019-02-14T19:35:22.423Z,102692.69
2019-02-14T19:37:48.513Z,102697.73
2019-02-14T19:40:21.832Z,102693.02
2019-02-14T19:42:55.190Z,102691.00
2019-02-14T19:45:36.407Z,102689.70
2019-02-14T19:48:03.576Z,102685.24
2019-02-14T19:50:36.961Z,102692.23
2019-02-14T19:53:10.344Z,102681.06
2019-02-14T19:55:43.639Z,102679.88
2019-02-14T19:58:16.970Z,102670.95
2019-02-14T20:00:50.419Z,102670.70
2019-02-14T20:03:23.709Z,102670.05
2019-02-14T20:05:57.043Z,102670.89
2019-02-14T20:08:30.376Z,102663.25
2019-02-14T20:11:03.763Z,102668.40
2019-02-14T20:13:37.063Z,102666.28
2019-02-14T20:16:10.400Z,102666.91
2019-02-14T20:18:43.719Z,102668.66
2019-02-14T20:21:17.013Z,102669.45
2019-02-14T20:23:50.324Z,102666.70
2019-02-14T20:26:23.609Z,102668.56
2019-02-14T20:28:56.930Z,102663.44
2019-02-14T20:31:31.906Z,102661.56
2019-02-14T20:34:05.223Z,102661.45
2019-02-14T20:36:38.520Z,102659.05
2019-02-14T20:39:11.828Z,102663.21
2019-02-14T20:41:46.549Z,102661.77
2019-02-14T20:44:19.941Z,102659.88
2019-02-14T20:46:53.208Z,102669.00
2019-02-14T20:49:27.903Z,102673.39
2019-02-14T20:52:01.178Z,102677.66
2019-02-14T20:54:34.569Z,102663.80
2019-02-14T20:57:08.326Z,102672.88
2019-02-14T20:59:41.735Z,102676.64
2019-02-14T21:02:15.076Z,102671.27
2019-02-14T21:04:48.436Z,102671.67
2019-02-14T21:07:21.662Z,102668.58
2019-02-14T21:09:55.973Z,102672.61
2019-02-14T21:12:29.261Z,102674.77
2019-02-14T21:15:02.632Z,102667.28
2019-02-14T21:17:35.949Z,102670.64
2019-02-14T21:20:11.601Z,102677.87
2019-02-14T21:22:44.915Z,102676.17
2019-02-14T21:25:22.394Z,102683.53
2019-02-14T21:27:54.506Z,102674.60
2019-02-14T21:30:27.829Z,102669.75
2019-02-14T21:33:01.167Z,102681.41
2019-02-14T21:35:34.475Z,102681.25
2019-02-14T21:38:07.805Z,102674.61
2019-02-14T21:40:41.368Z,102679.96
2019-02-14T21:43:14.719Z,102686.73
2019-02-14T21:45:48.042Z,102688.61
2019-02-14T21:48:21.347Z,102683.16
2019-02-14T21:50:54.671Z,102684.67
2019-02-14T21:53:27.971Z,102683.64
2019-02-14T21:56:01.319Z,102688.06
2019-02-14T21:58:34.626Z,102684.50
2019-02-14T22:01:08.347Z,102681.72
2019-02-14T22:03:41.798Z,102686.20
2019-02-14T22:06:15.109Z,102684.25
2019-02-14T22:08:48.443Z,102681.56
2019-02-14T22:11:21.767Z,102685.07
2019-02-14T22:13:55.086Z,102681.64
2019-02-14T22:16:28.407Z,102679.31
2019-02-14T22:19:01.714Z,102685.05
2019-02-14T22:21:35.063Z,102684.12
2019-02-14T22:24:08.375Z,102681.39
2019-02-14T22:26:41.702Z,102671.77
2019-02-14T22:29:15.066Z,102675.55
2019-02-14T22:31:48.365Z,102671.34
2019-02-14T22:34:21.695Z,102676.93
2019-02-14T22:36:54.986Z,102675.36
2019-02-14T22:39:28.391Z,102669.16
2019-02-14T22:42:01.698Z,102668.46
2019-02-14T22:44:35.024Z,102678.75
2019-02-14T22:47:08.307Z,102674.31
2019-02-14T22:49:41.676Z,102669.05
2019-02-14T22:52:14.981Z,102672.48
2019-02-14T22:54:48.307Z,102676.70
2019-02-14T22:57:21.603Z,102673.80
2019-02-14T22:59:54.940Z,102673.84
2019-02-14T23:02:28.299Z,102678.28
2019-02-14T23:05:01.683Z,102675.05
2019-02-14T23:07:34.998Z,102670.31
2019-02-14T23:10:08.416Z,102684.90
2019-02-14T23:12:41.726Z,102674.23
2019-02-14T23:15:15.443Z,102678.16
2019-02-14T23:17:48.761Z,102676.09
2019-02-14T23:20:22.154Z,102682.38
2019-02-14T23:22:55.453Z,102682.23
2019-02-14T23:25:28.772Z,102683.45
2019-02-14T23:28:02.069Z,102690.21
2019-02-14T23:30:35.382Z,102689.78
2019-02-14T23:33:08.709Z,102682.92
2019-02-14T23:35:42.058Z,102685.70
2019-02-14T23:38:15.351Z,102686.88
2019-02-14T23:40:48.682Z,102692.55
2019-02-14T23:43:22.016Z,102690.38
2019-02-14T23:45:55.325Z,102689.02
2019-02-14T23:48:28.624Z,102691.55
2019-02-14T23:51:03.550Z,102695.14
2019-02-14T23:53:37.031Z,102690.30
2019-02-14T23:56:10.364Z,102692.20
2019-02-14T23:58:43.656Z,102681.20
